Delta Virtual Airport Information Service

Jacksonville International Airport

ICAO: KJAX Country: United States
Latitude: 30.494 Longitude: -81.6878
Latest Arrival : SWA5785 (A) (KFLL-KJAX) Latest Departure : SWA6523 (KJAX-KFLL)


WX CaptureLIVE
Data provided by noaa.gov | Fetched at 07:42:13

METAR : KJAX 061256Z 07010KT 10SM FEW050 BKN095 BKN140 OVC250 14/08 A3004 RMK AO2 SLP174 T01440083

TAF : KJAX 061120Z 0612/0712 06008KT P6SM SCT025 BKN035 OVC090 FM061400 04011KT 6SM -SHRA BR BKN025 OVC040 FM061800 04012G20KT 5SM SHRA BR SCT008 OVC015 FM070000 03010KT P6SM VCSH SCT005 OVC015 FM070500 02007KT P6SM SCT008 BKN025 FM070800 36007KT P6SM FEW015 BKN120


Runway Data for KJAX
Data provided by openaviationdata.com

Runway ID Mag Var Hdg Length Elevation Surface ILS Freq ILS Id ILS Slope
7 -4 75° 9995 ft 30 ft Concrete 110.7 IJAX 3
13 -4 135° 7704 ft 30 ft Concrete 110.5 ICZH 3
25 -4 255° 9995 ft 30 ft Concrete 110.3 IPEK 3
31 -4 315° 7704 ft 30 ft Concrete -- -- --

Jacksonville International Airport, United States
Use only for reference purposes



Not for navigational purposes.